Time;durP1;ratioP1;P1;durP2;ratioP2;P2;SDS_P1;SDS_P2;PMS_P1;PMS_P2;Temp;Humidity;BMP_temperature;BMP_pressure;BME280_temperature;BME280_humidity;BME280_pressure;Samples;Min_cycle;Max_cycle;Signal;HPM_P1;HPM_P2
2021/01/09 00:00:22;;;;;;;30.50;18.60;;;;;;;1.88;76.88;99567.63;1748096;81;21622;-73
2021/01/09 00:02:49;;;;;;;28.23;19.65;;;;;;;1.85;76.97;99568.03;1744962;82;21197;-74
2021/01/09 00:05:17;;;;;;;24.77;16.48;;;;;;;1.80;77.15;99557.19;1746700;81;21307;-75
2021/01/09 00:07:45;;;;;;;26.05;15.65;;;;;;;1.81;77.31;99558.33;1752338;81;21565;-73
2021/01/09 00:10:12;;;;;;;27.17;16.30;;;;;;;1.82;77.46;99565.28;1782278;80;21120;-73
2021/01/09 00:12:40;;;;;;;26.45;17.87;;;;;;;1.81;77.61;99564.14;1762765;81;21183;-73
2021/01/09 00:15:09;;;;;;;27.10;19.32;;;;;;;1.81;77.78;99562.81;1745231;82;21252;-73
2021/01/09 00:17:37;;;;;;;22.93;16.10;;;;;;;1.82;77.91;99571.08;1745244;82;21159;-73
2021/01/09 00:20:11;;;;;;;26.35;18.30;;;;;;;1.80;78.03;99563.82;1745182;82;21174;-75
2021/01/09 00:22:40;;;;;;;24.92;16.82;;;;;;;1.80;78.19;99566.47;1745114;81;21035;-73
2021/01/09 00:25:09;;;;;;;21.30;15.40;;;;;;;1.81;78.30;99570.77;1745037;82;21549;-75
2021/01/09 00:27:37;;;;;;;28.75;17.52;;;;;;;1.84;78.46;99575.66;1745269;81;21445;-74
2021/01/09 00:30:05;;;;;;;34.05;20.45;;;;;;;1.83;78.53;99570.05;1757334;81;21131;-74
2021/01/09 00:32:34;;;;;;;27.87;16.73;;;;;;;1.82;78.70;99571.91;1758627;80;21202;-73
2021/01/09 00:35:06;;;;;;;32.23;20.48;;;;;;;1.82;78.85;99568.44;1757897;81;21608;-74
2021/01/09 00:37:33;;;;;;;23.22;16.42;;;;;;;1.80;79.01;99566.47;1757964;81;21136;-74
2021/01/09 00:40:04;;;;;;;29.40;18.70;;;;;;;1.81;79.16;99568.11;1757825;81;21414;-75
2021/01/09 00:42:38;;;;;;;26.52;17.05;;;;;;;1.85;79.29;99572.00;1757802;81;21182;-77
2021/01/09 00:45:08;;;;;;;25.95;17.20;;;;;;;1.87;79.30;99576.08;1733160;82;21167;-74
2021/01/09 00:47:36;;;;;;;25.55;17.98;;;;;;;1.88;79.36;99573.75;1713241;82;21231;-75
2021/01/09 00:50:07;;;;;;;21.02;14.35;;;;;;;1.86;79.47;99561.72;1750281;80;21162;-75
2021/01/09 00:52:34;;;;;;;31.77;18.92;;;;;;;1.85;79.60;99568.84;1720779;83;21356;-76
2021/01/09 00:55:03;;;;;;;24.15;17.35;;;;;;;1.84;79.67;99561.08;1751081;82;21998;-75
2021/01/09 00:57:30;;;;;;;24.47;16.30;;;;;;;1.83;79.85;99566.06;1746217;81;21190;-76
2021/01/09 00:59:58;;;;;;;29.45;20.55;;;;;;;1.79;80.03;99563.00;1745102;80;21150;-76
2021/01/09 01:02:25;;;;;;;28.38;19.75;;;;;;;1.77;80.21;99566.37;1753494;81;21342;-76
2021/01/09 01:04:53;;;;;;;23.83;16.75;;;;;;;1.78;80.38;99560.53;1754179;81;21255;-75
2021/01/09 01:07:20;;;;;;;28.38;17.77;;;;;;;1.76;80.53;99558.10;1753976;81;21132;-77
2021/01/09 01:09:47;;;;;;;26.05;17.23;;;;;;;1.74;80.69;99560.94;1765001;80;21179;-78
2021/01/09 01:12:15;;;;;;;29.67;21.55;;;;;;;1.74;80.87;99552.98;1758691;80;21177;-76
2021/01/09 01:14:42;;;;;;;29.45;19.82;;;;;;;1.75;80.94;99550.66;1775280;80;21158;-76
2021/01/09 01:17:09;;;;;;;27.17;18.40;;;;;;;1.75;81.05;99545.85;1775173;80;21365;-76
2021/01/09 01:19:37;;;;;;;32.10;20.75;;;;;;;1.74;81.14;99543.70;1773565;80;21150;-75
2021/01/09 01:22:05;;;;;;;28.98;19.67;;;;;;;1.75;81.29;99547.17;1775066;80;21129;-75
2021/01/09 01:24:33;;;;;;;32.35;23.00;;;;;;;1.74;81.40;99545.03;1775078;80;21173;-75
2021/01/09 01:27:00;;;;;;;34.33;23.45;;;;;;;1.77;81.43;99553.62;1775156;80;21653;-74
2021/01/09 01:29:27;;;;;;;28.98;19.92;;;;;;;1.79;81.56;99552.89;1763164;80;21637;-75
2021/01/09 01:31:58;;;;;;;28.42;22.00;;;;;;;1.83;81.58;99542.20;1752926;81;21021;-75
2021/01/09 01:34:26;;;;;;;33.60;21.93;;;;;;;1.82;81.57;99542.74;1753951;81;21924;-75
2021/01/09 01:36:54;;;;;;;28.65;18.67;;;;;;;1.81;81.62;99538.95;1756610;81;21936;-74
2021/01/09 01:39:21;;;;;;;33.80;22.25;;;;;;;1.80;81.65;99541.28;1752387;81;21172;-75
2021/01/09 01:41:49;;;;;;;32.00;22.70;;;;;;;1.77;81.80;99541.19;1779639;80;21249;-77
2021/01/09 01:44:17;;;;;;;33.30;22.50;;;;;;;1.79;81.91;99535.66;1747805;81;21863;-74
2021/01/09 01:46:44;;;;;;;31.75;19.37;;;;;;;1.79;81.95;99530.36;1753875;81;21219;-76
2021/01/09 01:49:12;;;;;;;31.68;19.55;;;;;;;1.78;81.96;99532.19;1768625;80;21589;-75
2021/01/09 01:51:42;;;;;;;33.75;23.07;;;;;;;1.77;82.07;99534.56;1765141;80;21156;-75
2021/01/09 01:54:10;;;;;;;34.23;22.40;;;;;;;1.80;82.13;99526.70;1785081;80;21185;-76
2021/01/09 01:56:37;;;;;;;33.00;23.38;;;;;;;1.83;82.15;99531.59;1784942;80;21156;-76
2021/01/09 01:59:04;;;;;;;28.50;19.55;;;;;;;1.84;82.19;99535.89;1785187;80;21558;-76
2021/01/09 02:01:32;;;;;;;28.45;20.65;;;;;;;1.86;82.23;99528.58;1740219;81;21620;-74
2021/01/09 02:04:00;;;;;;;34.63;24.07;;;;;;;1.85;82.26;99525.60;1738427;82;21167;-75
2021/01/09 02:06:29;;;;;;;32.20;21.00;;;;;;;1.84;82.30;99524.78;1738406;82;21202;-76
2021/01/09 02:09:03;;;;;;;31.20;22.45;;;;;;;1.86;82.39;99529.90;1754306;80;21157;-76
2021/01/09 02:11:48;;;;;;;26.55;18.75;;;;;;;1.86;82.44;99522.77;1732484;82;21171;-74
2021/01/09 02:14:38;;;;;;;26.95;18.15;;;;;;;1.85;82.49;99526.42;1704916;83;21187;-75
2021/01/09 02:17:08;;;;;;;31.10;23.30;;;;;;;1.81;82.50;99515.09;1706221;83;21601;-75
2021/01/09 02:19:39;;;;;;;33.40;23.80;;;;;;;1.80;82.67;99514.27;1730034;83;21373;-76
2021/01/09 02:22:17;;;;;;;33.05;22.30;;;;;;;1.82;82.77;99514.90;1729810;82;21048;-76
2021/01/09 02:24:46;;;;;;;37.50;23.38;;;;;;;1.84;82.93;99516.83;1729843;83;21033;-75
2021/01/09 02:27:14;;;;;;;30.90;21.82;;;;;;;1.87;82.86;99519.07;1738717;82;20996;-75
2021/01/09 02:30:11;;;;;;;31.55;22.73;;;;;;;1.87;82.81;99506.35;1746646;82;21120;-76
2021/01/09 02:32:59;;;;;;;36.00;24.12;;;;;;;1.85;82.83;99515.00;1739245;81;22117;-75
2021/01/09 02:35:28;;;;;;;33.42;23.65;;;;;;;1.84;83.03;99504.08;1738100;82;21728;-74
2021/01/09 02:37:55;;;;;;;31.65;21.95;;;;;;;1.88;83.09;99509.29;1737971;82;21032;-75
2021/01/09 02:40:23;;;;;;;34.38;23.25;;;;;;;1.89;83.08;99504.30;1737663;82;21146;-76
2021/01/09 02:42:50;;;;;;;34.38;24.75;;;;;;;1.87;83.06;99502.38;1738278;82;21554;-75
2021/01/09 02:45:18;;;;;;;29.85;20.72;;;;;;;1.83;83.13;99506.41;1738457;82;21166;-75
2021/01/09 02:47:47;;;;;;;37.08;23.85;;;;;;;1.84;83.35;99501.42;1748638;81;21615;-75
2021/01/09 02:50:14;;;;;;;32.48;21.30;;;;;;;1.85;83.28;99506.54;1761214;81;21155;-75
2021/01/09 02:52:43;;;;;;;27.82;20.15;;;;;;;1.83;83.31;99501.93;1761243;81;21179;-74
2021/01/09 02:55:11;;;;;;;32.13;22.85;;;;;;;1.81;83.33;99493.88;1762178;80;21106;-75
2021/01/09 02:57:39;;;;;;;37.45;23.27;;;;;;;1.79;83.41;99506.50;1762272;81;21227;-73
2021/01/09 03:00:10;;;;;;;40.17;27.20;;;;;;;1.75;83.55;99498.95;1760873;81;21079;-74
2021/01/09 03:02:38;;;;;;;34.08;22.60;;;;;;;1.76;83.66;99498.45;1763206;80;21574;-75
2021/01/09 03:05:08;;;;;;;36.98;22.95;;;;;;;1.75;83.72;99502.93;1773963;80;21628;-74
2021/01/09 03:07:36;;;;;;;28.52;18.57;;;;;;;1.73;83.84;99498.83;1771279;80;21194;-74
2021/01/09 03:10:05;;;;;;;29.00;18.77;;;;;;;1.73;84.01;99509.43;1755962;81;21423;-76
2021/01/09 03:12:33;;;;;;;39.20;26.20;;;;;;;1.67;84.04;99506.27;1755879;81;21040;-76
2021/01/09 03:15:00;;;;;;;37.05;24.65;;;;;;;1.66;84.20;99508.09;1755860;81;21155;-75
2021/01/09 03:17:28;;;;;;;34.85;22.37;;;;;;;1.70;84.37;99501.88;1756601;81;21269;-74
2021/01/09 03:19:55;;;;;;;33.90;22.02;;;;;;;1.77;84.55;99509.88;1759421;81;21176;-75
2021/01/09 03:22:23;;;;;;;32.73;22.25;;;;;;;1.84;84.45;99505.41;1755897;81;21506;-76
2021/01/09 03:24:50;;;;;;;34.67;23.87;;;;;;;1.87;84.44;99511.12;1758891;80;21156;-75
2021/01/09 03:27:18;;;;;;;30.62;20.65;;;;;;;1.90;84.42;99513.39;1757795;80;21084;-75
2021/01/09 03:29:45;;;;;;;36.17;25.20;;;;;;;1.94;84.29;99511.16;1761259;81;21091;-76
2021/01/09 03:32:12;;;;;;;34.67;23.70;;;;;;;1.93;84.20;99506.36;1761261;81;21645;-75
2021/01/09 03:34:40;;;;;;;40.40;26.52;;;;;;;1.92;84.17;99507.36;1761145;81;21254;-76
2021/01/09 03:37:08;;;;;;;34.63;24.00;;;;;;;1.89;84.17;99505.13;1761420;80;21142;-75
2021/01/09 03:39:35;;;;;;;36.33;22.60;;;;;;;1.88;84.21;99506.64;1759522;81;20990;-75
2021/01/09 03:42:04;;;;;;;34.25;22.05;;;;;;;1.87;84.29;99503.16;1761171;81;21139;-74
2021/01/09 03:44:33;;;;;;;39.80;23.27;;;;;;;1.89;84.27;99508.28;1761238;81;21057;-74
2021/01/09 03:47:00;;;;;;;29.50;20.45;;;;;;;1.91;84.36;99508.91;1772173;80;21381;-74
2021/01/09 03:49:28;;;;;;;31.15;21.75;;;;;;;1.94;84.33;99510.66;1738316;82;21131;-75
2021/01/09 03:51:56;;;;;;;28.42;17.87;;;;;;;1.94;84.21;99505.85;1738411;82;21175;-76
2021/01/09 03:54:24;;;;;;;40.20;24.35;;;;;;;1.92;84.17;99513.20;1738334;82;21478;-76
2021/01/09 03:56:51;;;;;;;27.67;17.98;;;;;;;1.88;84.26;99507.45;1738463;82;21167;-75
2021/01/09 03:59:18;;;;;;;39.15;24.12;;;;;;;1.88;84.31;99510.61;1738412;82;21389;-76
2021/01/09 04:01:46;;;;;;;40.25;25.00;;;;;;;1.83;84.40;99511.72;1759847;81;21181;-75
2021/01/09 04:04:13;;;;;;;35.35;24.85;;;;;;;1.84;84.46;99517.34;1740822;81;20979;-76
2021/01/09 04:06:41;;;;;;;39.10;25.20;;;;;;;1.87;84.48;99523.05;1738471;82;21156;-75
2021/01/09 04:09:08;;;;;;;42.30;26.95;;;;;;;1.88;84.49;99517.24;1753174;80;21123;-75
2021/01/09 04:11:37;;;;;;;33.67;25.10;;;;;;;1.90;84.56;99517.38;1738417;82;21352;-76
2021/01/09 04:14:06;;;;;;;38.90;26.10;;;;;;;1.97;84.63;99516.05;1738402;82;21562;-75
2021/01/09 04:16:36;;;;;;;41.88;27.25;;;;;;;1.99;84.45;99520.66;1738528;82;21145;-74
2021/01/09 04:19:05;;;;;;;33.30;23.77;;;;;;;1.99;84.27;99518.83;1738944;82;21536;-74
2021/01/09 04:21:47;;;;;;;33.23;24.55;;;;;;;1.98;84.21;99523.81;1745377;81;21668;-74
2021/01/09 04:24:15;;;;;;;34.58;20.72;;;;;;;1.98;84.22;99525.14;1726925;81;21206;-73
2021/01/09 04:26:43;;;;;;;39.27;23.65;;;;;;;2.00;84.13;99530.26;1725890;83;21176;-74
2021/01/09 04:29:10;;;;;;;38.90;24.15;;;;;;;1.98;84.13;99517.19;1746781;81;21022;-76
2021/01/09 04:31:38;;;;;;;29.90;20.97;;;;;;;1.98;84.12;99525.65;1751929;81;21195;-74
2021/01/09 04:34:05;;;;;;;41.75;26.50;;;;;;;1.98;84.10;99532.28;1727078;82;21131;-74
2021/01/09 04:36:33;;;;;;;28.77;18.73;;;;;;;1.91;84.06;99530.95;1708748;83;21200;-73
2021/01/09 04:39:00;;;;;;;34.20;23.02;;;;;;;1.88;84.19;99529.17;1724952;83;21076;-74
2021/01/09 04:41:28;;;;;;;34.67;23.77;;;;;;;1.86;84.39;99533.88;1760578;81;21011;-74
2021/01/09 04:43:55;;;;;;;39.70;26.20;;;;;;;1.86;84.48;99537.85;1771193;80;21104;-74
2021/01/09 04:46:23;;;;;;;30.35;20.70;;;;;;;1.88;84.64;99538.45;1768831;81;21557;-74
2021/01/09 04:48:50;;;;;;;36.85;25.10;;;;;;;1.96;84.70;99541.78;1775211;80;21365;-74
2021/01/09 04:51:18;;;;;;;33.53;24.18;;;;;;;2.00;84.62;99537.71;1735904;81;21574;-75
2021/01/09 04:53:46;;;;;;;38.90;26.33;;;;;;;2.02;84.52;99535.66;1759940;80;21143;-74
2021/01/09 04:56:13;;;;;;;40.23;27.60;;;;;;;2.04;84.45;99538.95;1756774;81;20985;-76
2021/01/09 04:58:41;;;;;;;35.28;22.98;;;;;;;2.06;84.34;99540.09;1756759;81;21119;-76
2021/01/09 05:01:08;;;;;;;32.83;23.25;;;;;;;2.06;84.27;99540.88;1756712;80;21218;-75
2021/01/09 05:03:35;;;;;;;41.45;26.57;;;;;;;2.07;84.28;99544.34;1757377;80;21597;-75
2021/01/09 05:06:03;;;;;;;36.38;21.30;;;;;;;2.09;84.30;99546.30;1756614;80;21168;-74
2021/01/09 05:08:32;;;;;;;32.08;20.72;;;;;;;2.08;84.23;99544.16;1772831;80;21007;-74
2021/01/09 05:11:00;;;;;;;38.83;23.50;;;;;;;2.07;84.20;99544.34;1764248;80;21191;-75
2021/01/09 05:13:27;;;;;;;38.38;25.17;;;;;;;2.08;84.18;99544.66;1715997;82;21188;-75
2021/01/09 05:15:55;;;;;;;37.78;25.08;;;;;;;2.07;84.22;99548.33;1713341;81;21029;-76
2021/01/09 05:18:23;;;;;;;40.45;26.97;;;;;;;2.07;84.21;99547.82;1756795;80;21186;-74
2021/01/09 05:20:50;;;;;;;38.08;25.05;;;;;;;2.12;84.30;99552.53;1716731;81;21135;-75
2021/01/09 05:23:18;;;;;;;38.40;24.32;;;;;;;2.14;84.24;99556.63;1761305;80;22232;-75
2021/01/09 05:25:46;;;;;;;33.88;21.80;;;;;;;2.11;84.05;99553.57;1769804;80;21930;-75
2021/01/09 05:28:13;;;;;;;42.53;28.38;;;;;;;2.08;84.09;99551.30;1735548;81;20997;-75
2021/01/09 05:30:42;;;;;;;43.92;28.55;;;;;;;2.06;84.21;99558.65;1706897;83;21167;-76
2021/01/09 05:33:10;;;;;;;37.75;26.62;;;;;;;2.08;84.27;99558.75;1755784;81;21633;-75
2021/01/09 05:35:38;;;;;;;38.38;27.02;;;;;;;2.13;84.30;99561.63;1777489;80;21153;-75
2021/01/09 05:38:07;;;;;;;36.00;23.67;;;;;;;2.16;84.30;99565.20;1777589;80;21184;-76
2021/01/09 05:40:39;;;;;;;34.23;22.37;;;;;;;2.21;84.22;99571.23;1763342;80;21177;-76
2021/01/09 05:43:10;;;;;;;37.70;26.13;;;;;;;2.23;84.11;99569.21;1765441;80;21633;-76
2021/01/09 05:45:38;;;;;;;39.88;25.57;;;;;;;2.23;84.05;99573.70;1760864;80;21184;-76
2021/01/09 05:48:07;;;;;;;33.53;20.90;;;;;;;2.22;84.00;99576.03;1776962;80;21228;-75
2021/01/09 05:50:35;;;;;;;27.07;17.98;;;;;;;2.18;84.11;99577.77;1764680;80;22045;-72
2021/01/09 05:53:02;;;;;;;43.02;27.58;;;;;;;2.15;84.15;99583.48;1787989;80;21111;-72
2021/01/09 05:55:39;;;;;;;38.35;26.87;;;;;;;2.12;84.22;99579.05;1768436;80;21166;-73
2021/01/09 05:58:07;;;;;;;36.20;24.37;;;;;;;2.13;84.52;99586.83;1756870;80;21190;-73
2021/01/09 06:00:35;;;;;;;29.70;19.80;;;;;;;2.17;84.62;99579.28;1740043;81;21227;-76
2021/01/09 06:03:23;;;;;;;36.68;25.23;;;;;;;2.20;84.65;99580.23;1742394;81;21201;-74
2021/01/09 06:05:50;;;;;;;37.45;26.20;;;;;;;2.19;84.78;99582.06;1732873;81;21160;-74
2021/01/09 06:08:22;;;;;;;33.15;22.42;;;;;;;2.24;84.91;99590.75;1734122;81;21481;-74
2021/01/09 06:10:50;;;;;;;40.05;26.75;;;;;;;2.22;84.84;99595.42;1739358;81;21155;-73
2021/01/09 06:13:17;;;;;;;39.30;26.77;;;;;;;2.19;84.90;99595.83;1737227;81;21112;-74
2021/01/09 06:15:46;;;;;;;39.27;26.42;;;;;;;2.19;85.01;99598.48;1756712;81;21372;-75
2021/01/09 06:18:14;;;;;;;33.63;21.48;;;;;;;2.17;85.18;99599.17;1719261;81;21152;-74
2021/01/09 06:20:42;;;;;;;34.30;23.30;;;;;;;2.15;85.30;99608.69;1741874;81;21168;-74
2021/01/09 06:23:10;;;;;;;32.48;22.42;;;;;;;2.14;85.55;99616.83;1767942;80;21637;-74
2021/01/09 06:25:37;;;;;;;25.80;17.35;;;;;;;2.18;85.74;99608.78;1787835;80;21593;-75
2021/01/09 06:28:06;;;;;;;35.65;24.85;;;;;;;2.18;85.70;99608.28;1787863;80;21193;-74
2021/01/09 06:30:34;;;;;;;39.70;27.55;;;;;;;2.17;85.77;99609.79;1770032;80;21588;-75
2021/01/09 06:33:04;;;;;;;36.93;24.90;;;;;;;2.17;85.90;99613.27;1721323;82;21156;-74
2021/01/09 06:35:33;;;;;;;37.50;25.35;;;;;;;2.16;85.93;99618.25;1756885;81;21582;-74
2021/01/09 06:38:01;;;;;;;39.25;24.98;;;;;;;2.08;86.03;99621.08;1756648;81;21564;-74
2021/01/09 06:40:29;;;;;;;34.33;23.83;;;;;;;2.05;86.23;99620.66;1756260;81;22269;-75
2021/01/09 06:42:57;;;;;;;33.35;24.50;;;;;;;2.02;86.50;99624.52;1745655;80;21260;-76
2021/01/09 06:45:25;;;;;;;31.40;20.48;;;;;;;2.05;86.74;99622.81;1753569;81;21130;-74
2021/01/09 06:48:00;;;;;;;30.30;19.62;;;;;;;2.05;86.84;99629.95;1733258;81;21145;-71
2021/01/09 06:50:32;;;;;;;35.68;23.67;;;;;;;2.01;86.84;99630.03;1739761;81;21105;-71
2021/01/09 06:53:04;;;;;;;35.98;25.72;;;;;;;1.95;86.97;99627.66;1744290;82;21434;-71
2021/01/09 06:55:43;;;;;;;29.95;19.52;;;;;;;1.92;87.16;99636.52;1755538;81;21145;-73
2021/01/09 06:58:12;;;;;;;30.40;22.15;;;;;;;1.91;87.38;99633.55;1755084;81;21580;-72
2021/01/09 07:00:39;;;;;;;30.20;21.50;;;;;;;1.87;87.56;99639.72;1736511;81;21147;-71
2021/01/09 07:03:17;;;;;;;34.83;22.58;;;;;;;1.83;87.70;99639.80;1769108;80;21601;-75
2021/01/09 07:05:52;;;;;;;33.02;21.25;;;;;;;1.78;87.85;99637.41;1755186;81;21194;-72
2021/01/09 07:08:29;;;;;;;38.70;24.02;;;;;;;1.75;88.09;99637.31;1753208;81;21148;-73
2021/01/09 07:11:02;;;;;;;32.03;21.57;;;;;;;1.70;88.29;99633.92;1745506;82;21139;-73
2021/01/09 07:13:31;;;;;;;;;;;;;;;1.69;88.52;99632.78;1741862;81;21187;-72
2021/01/09 07:16:11;;;;;;;40.45;26.48;;;;;;;1.69;88.65;99638.08;1757124;81;20188;-71
2021/01/09 07:18:46;;;;;;;31.57;21.27;;;;;;;1.66;88.80;99639.30;1747636;81;21378;-74
2021/01/09 07:21:19;;;;;;;31.73;20.55;;;;;;;1.67;89.01;99644.92;1699630;82;21719;-72
2021/01/09 07:23:50;;;;;;;31.02;21.33;;;;;;;1.64;89.07;99641.31;1746155;80;21278;-73
2021/01/09 07:26:19;;;;;;;30.20;20.35;;;;;;;1.59;89.07;99646.88;1711257;83;21261;-73
2021/01/09 07:28:47;;;;;;;29.27;18.30;;;;;;;1.59;89.27;99657.48;1735535;81;21175;-74
2021/01/09 07:31:14;;;;;;;35.55;22.22;;;;;;;1.57;89.49;99656.37;1738743;81;21873;-75
2021/01/09 07:33:44;;;;;;;37.80;25.50;;;;;;;1.60;89.48;99650.67;1761305;81;21136;-73
2021/01/09 07:36:15;;;;;;;29.45;19.50;;;;;;;1.64;89.56;99650.59;1760907;81;21530;-74
2021/01/09 07:38:45;;;;;;;31.60;22.25;;;;;;;1.68;89.54;99658.97;1739510;81;21026;-75
2021/01/09 07:41:32;;;;;;;34.95;21.02;;;;;;;1.70;89.49;99656.95;1760691;81;21168;-74
2021/01/09 07:44:23;;;;;;;35.05;23.10;;;;;;;1.70;89.44;99645.03;1763735;81;22142;-73
2021/01/09 07:46:58;;;;;;;32.63;20.65;;;;;;;1.73;89.59;99657.37;1754540;81;21094;-74
2021/01/09 07:49:29;;;;;;;33.15;20.62;;;;;;;1.77;89.35;99653.86;1757404;81;21166;-71
2021/01/09 07:52:07;;;;;;;28.12;20.88;;;;;;;1.76;89.26;99657.52;1748690;82;21133;-76
2021/01/09 07:54:43;;;;;;;40.20;26.17;;;;;;;1.76;89.26;99657.52;1749734;82;21549;-76
2021/01/09 07:57:22;;;;;;;32.98;21.40;;;;;;;1.79;89.22;99657.12;1720431;83;21365;-74
2021/01/09 08:00:03;;;;;;;40.55;24.12;;;;;;;1.83;89.13;99654.89;1739366;81;21190;-74
2021/01/09 08:02:40;;;;;;;31.55;20.30;;;;;;;1.85;89.04;99658.18;1713623;83;20983;-74
2021/01/09 08:05:20;;;;;;;26.77;20.60;;;;;;;1.89;88.95;99657.59;1735327;82;21137;-76
2021/01/09 08:07:51;;;;;;;24.98;17.40;;;;;;;1.93;88.64;99665.47;1729156;82;21380;-75
2021/01/09 08:10:29;;;;;;;31.00;19.70;;;;;;;1.93;88.39;99661.99;1732001;82;21393;-76
2021/01/09 08:13:00;;;;;;;31.27;19.70;;;;;;;1.90;88.14;99666.37;1748996;82;21575;-76
2021/01/09 08:15:29;;;;;;;33.10;22.67;;;;;;;1.87;88.16;99665.45;1749020;82;21606;-75
2021/01/09 08:18:06;;;;;;;34.30;22.85;;;;;;;1.86;88.19;99667.78;1749038;82;21602;-75
2021/01/09 08:20:34;;;;;;;32.75;20.68;;;;;;;1.85;88.24;99666.95;1727477;81;21182;-75
2021/01/09 08:23:07;;;;;;;33.55;22.25;;;;;;;1.88;88.28;99663.91;1729070;83;21325;-77
2021/01/09 08:25:38;;;;;;;27.17;19.37;;;;;;;1.89;88.25;99668.20;1728995;83;21149;-74
2021/01/09 08:28:06;;;;;;;31.68;18.90;;;;;;;1.86;88.17;99669.10;1729015;82;21200;-74
2021/01/09 08:30:40;;;;;;;31.30;21.20;;;;;;;1.86;88.17;99661.15;1730579;82;21146;-74
2021/01/09 08:33:13;;;;;;;27.25;18.90;;;;;;;1.86;88.17;99671.76;1702897;84;21161;-75
2021/01/09 08:35:50;;;;;;;27.93;17.98;;;;;;;1.88;88.28;99667.88;1719299;83;21381;-74
2021/01/09 08:38:30;;;;;;;27.30;18.15;;;;;;;1.93;88.12;99661.99;1720350;83;21004;-75
2021/01/09 08:41:00;;;;;;;31.30;19.98;;;;;;;1.99;87.68;99659.39;1671476;83;21186;-76
2021/01/09 08:43:29;;;;;;;36.70;23.45;;;;;;;2.02;87.51;99659.50;1714192;83;21149;-76
2021/01/09 08:45:58;;;;;;;29.75;19.82;;;;;;;2.00;87.16;99651.75;1747568;82;21167;-76
2021/01/09 08:48:28;;;;;;;34.70;22.32;;;;;;;2.00;87.08;99656.23;1748927;82;21443;-74
2021/01/09 08:51:11;;;;;;;32.33;21.90;;;;;;;1.98;86.91;99651.63;1766535;81;21171;-74
2021/01/09 08:54:05;;;;;;;31.60;19.85;;;;;;;2.00;87.04;99643.80;1767084;81;21107;-75
2021/01/09 08:56:32;;;;;;;;;;;;;;;2.03;86.62;99639.92;1747443;82;21577;-74
2021/01/09 08:59:05;;;;;;;35.50;23.47;;;;;;;2.03;86.53;99643.90;1744534;82;20278;-76
2021/01/09 09:01:41;;;;;;;32.58;21.25;;;;;;;2.02;86.09;99648.38;1765388;80;21418;-73
2021/01/09 09:04:09;;;;;;;28.98;18.70;;;;;;;2.02;86.05;99648.38;1761630;81;21056;-73
2021/01/09 09:06:43;;;;;;;33.42;22.02;;;;;;;2.05;85.89;99644.53;1754156;81;21124;-73
2021/01/09 09:09:16;;;;;;;30.72;18.73;;;;;;;2.08;85.85;99647.61;1758238;81;21128;-73
2021/01/09 09:11:50;;;;;;;29.65;21.15;;;;;;;2.16;85.76;99646.11;1739564;82;21139;-72
2021/01/09 09:14:17;;;;;;;32.85;23.38;;;;;;;2.20;85.51;99643.91;1744397;81;21408;-73
2021/01/09 09:16:45;;;;;;;30.23;20.88;;;;;;;2.25;85.49;99634.84;1744557;81;21135;-72
2021/01/09 09:19:16;;;;;;;31.12;21.73;;;;;;;2.30;85.40;99636.40;1749063;81;21119;-73
2021/01/09 09:21:48;;;;;;;26.45;17.73;;;;;;;2.32;84.68;99633.53;1751998;81;21159;-72
2021/01/09 09:24:16;;;;;;;35.63;24.30;;;;;;;2.32;84.57;99633.02;1744694;82;21155;-73
2021/01/09 09:26:44;;;;;;;36.17;21.73;;;;;;;2.31;84.44;99631.38;1743752;82;21358;-74
2021/01/09 09:29:16;;;;;;;28.90;20.23;;;;;;;2.34;84.38;99636.31;1764943;81;21155;-74
2021/01/09 09:31:43;;;;;;;29.42;19.17;;;;;;;2.34;83.66;99636.81;1752626;81;21058;-78
2021/01/09 09:34:15;;;;;;;23.52;15.58;;;;;;;2.35;83.29;99634.48;1771712;80;21126;-75
2021/01/09 09:36:59;;;;;;;27.15;16.95;;;;;;;2.37;83.33;99627.13;1757202;80;21122;-74
2021/01/09 09:39:27;;;;;;;29.52;18.10;;;;;;;2.36;82.70;99633.44;1765947;81;24983;-73
2021/01/09 09:42:03;;;;;;;33.08;20.52;;;;;;;2.31;82.56;99631.38;1762788;81;21022;-74
2021/01/09 09:44:45;;;;;;;26.12;16.40;;;;;;;2.28;82.50;99617.20;1763869;81;21634;-72
2021/01/09 09:47:26;;;;;;;28.83;19.37;;;;;;;2.28;82.48;99620.35;1754855;80;21182;-71
2021/01/09 09:49:59;;;;;;;;;;;;;;;2.30;82.57;99613.03;1739672;81;21144;-75
2021/01/09 09:52:27;;;;;;;25.88;16.30;;;;;;;2.31;82.18;99614.13;1730776;81;22074;-74
2021/01/09 09:55:04;;;;;;;34.27;22.22;;;;;;;2.33;82.29;99605.98;1711104;83;21195;-71
2021/01/09 09:57:32;;;;;;;28.15;17.87;;;;;;;2.32;81.79;99603.02;1741398;81;21560;-74
2021/01/09 10:00:06;;;;;;;27.95;18.77;;;;;;;2.29;81.61;99612.20;1734322;81;21223;-72
2021/01/09 10:02:55;;;;;;;26.42;17.27;;;;;;;2.31;81.58;99609.33;1736612;81;21179;-76
2021/01/09 10:05:24;;;;;;;24.70;16.57;;;;;;;2.32;81.39;99607.81;1711650;83;21286;-74
2021/01/09 10:08:09;;;;;;;29.55;19.35;;;;;;;2.34;80.79;99608.45;1731559;81;21375;-74
2021/01/09 10:10:37;;;;;;;24.55;17.10;;;;;;;2.36;80.53;99614.86;1721555;82;21657;-73
2021/01/09 10:13:05;;;;;;;27.40;19.37;;;;;;;2.34;79.62;99607.63;1732086;82;21128;-74
2021/01/09 10:15:33;;;;;;;27.07;19.23;;;;;;;2.34;79.64;99620.39;1756614;81;21630;-75
2021/01/09 10:18:02;;;;;;;23.38;17.65;;;;;;;2.29;79.37;99604.24;1763465;81;21197;-77
2021/01/09 10:20:30;;;;;;;26.73;17.52;;;;;;;2.29;79.69;99601.59;1763668;81;21149;-73
2021/01/09 10:22:57;;;;;;;25.35;16.15;;;;;;;2.30;79.79;99609.86;1763707;81;21172;-72
2021/01/09 10:25:25;;;;;;;22.27;14.95;;;;;;;2.29;79.15;99608.73;1763679;81;21632;-77
2021/01/09 10:27:53;;;;;;;30.65;19.55;;;;;;;2.28;78.90;99610.56;1763833;81;21162;-74
2021/01/09 10:30:21;;;;;;;19.65;12.88;;;;;;;2.29;79.15;99596.78;1763855;81;21125;-73
2021/01/09 10:32:49;;;;;;;22.40;14.65;;;;;;;2.31;79.08;99614.64;1764004;81;21039;-75
2021/01/09 10:35:17;;;;;;;25.48;16.55;;;;;;;2.32;78.60;99614.95;1762647;81;21146;-73
2021/01/09 10:37:47;;;;;;;22.02;14.25;;;;;;;2.31;78.17;99613.31;1762874;81;21131;-74
2021/01/09 10:40:15;;;;;;;21.05;13.98;;;;;;;2.29;77.89;99605.57;1764136;80;21134;-75
2021/01/09 10:42:45;;;;;;;21.00;14.00;;;;;;;2.28;77.83;99613.21;1764320;80;21388;-72
2021/01/09 10:45:15;;;;;;;20.30;15.13;;;;;;;2.31;77.84;99600.05;1764477;81;21112;-74
2021/01/09 10:47:43;;;;;;;24.23;16.73;;;;;;;2.29;77.86;99606.08;1765852;81;21169;-74
2021/01/09 10:50:13;;;;;;;21.55;14.55;;;;;;;2.27;77.75;99616.05;1758627;80;21148;-72
2021/01/09 10:52:41;;;;;;;20.85;14.68;;;;;;;2.29;77.93;99608.22;1719012;82;21158;-76
2021/01/09 10:55:10;;;;;;;19.90;14.33;;;;;;;2.30;78.03;99613.84;1727696;82;21389;-75
2021/01/09 10:57:37;;;;;;;20.85;14.10;;;;;;;2.32;77.99;99594.55;1767332;81;21165;-73
2021/01/09 11:00:09;;;;;;;22.35;13.38;;;;;;;2.35;77.73;99607.41;1724098;82;21182;-76
2021/01/09 11:02:36;;;;;;;24.15;17.00;;;;;;;2.37;77.68;99596.09;1741337;81;21262;-73
2021/01/09 11:05:05;;;;;;;30.45;19.82;;;;;;;2.40;77.60;99594.89;1735892;82;21171;-72
2021/01/09 11:07:33;;;;;;;20.48;13.53;;;;;;;2.44;77.75;99592.15;1736690;82;21343;-73
2021/01/09 11:10:00;;;;;;;21.30;14.43;;;;;;;2.48;77.57;99594.70;1747472;81;21692;-72
2021/01/09 11:12:27;;;;;;;24.37;15.95;;;;;;;2.48;77.31;99592.88;1747985;81;21192;-75
2021/01/09 11:14:55;;;;;;;20.90;15.55;;;;;;;2.50;77.26;99613.89;1748931;82;21173;-76
2021/01/09 11:17:23;;;;;;;21.57;13.98;;;;;;;2.49;76.89;99600.33;1748223;82;21097;-76
2021/01/09 11:19:51;;;;;;;23.95;15.50;;;;;;;2.45;76.89;99596.41;1747477;81;21554;-77
2021/01/09 11:22:18;;;;;;;18.17;12.50;;;;;;;2.44;76.96;99591.64;1747411;82;21160;-78
2021/01/09 11:24:46;;;;;;;20.20;13.75;;;;;;;2.47;77.00;99593.06;1748328;82;21618;-77
2021/01/09 11:27:15;;;;;;;21.12;15.48;;;;;;;2.47;76.87;99585.92;1749109;82;21172;-78
2021/01/09 11:29:43;;;;;;;23.70;15.30;;;;;;;2.48;76.93;99586.24;1750628;82;21120;-76
2021/01/09 11:32:11;;;;;;;23.10;14.80;;;;;;;2.51;77.22;99591.13;1749903;82;21282;-76
2021/01/09 11:34:39;;;;;;;22.20;16.40;;;;;;;2.54;76.81;99588.61;1753568;81;21800;-75
2021/01/09 11:37:06;;;;;;;22.07;15.48;;;;;;;2.56;76.98;99590.03;1769970;81;21019;-76
2021/01/09 11:39:34;;;;;;;20.08;14.03;;;;;;;2.56;76.53;99605.13;1768942;81;21193;-74